الصفحة الرئيسية
METAR-TAF:

METAR-TAF

مطار :

كالغورلي, أستراليا

دائرة عرض: 30-47S, خط طول: 121-27E, ارتفاع: 367 متر

مراقبة الطقس الحالي

تاريخ ووقت الإصدار 37 دقيقة قبل الساعة 20:30UTC
ريح 8 عقدة من الشرق/الجنوب الشرقي
درجة الحرارة 14°درجة مئوية
الرطوبة 58%
ضغط 1025 hPa
الرؤية 10 كم أو أكثر

METAR: YPKG 172030Z AUTO 11008KT 9999 // NCD 14/06 Q1025 RF00.0/000.0

زمن: 05:07 (21:07 UTC)

توقعات

تاريخ ووقت الإصدار 3ساعات و 57 دقيقة قبل الساعة 17:10UTC
التوقعات صالحة من17 الساعة 18 UTC إلى 18 الساعة 18 UTC
ريح 5 عقدة من الشرق/الجنوب الشرقي
الرؤية 10 كم أو أكثر
الغيوم لا تقل 1500 م ولا وجود لمزنة ركامية السحاب الأسود
من 18 الساعة 0100 UTC
ريح 8 عقدة من الشمال/الشمال الشرقي
الرؤية 10 كم أو أكثر
الغيوم لا تقل 1500 م ولا وجود لمزنة ركامية السحاب الأسود
من 18 الساعة 0800 UTC
ريح 6 عقدة من الشرق
الرؤية 10 كم أو أكثر
الغيوم لا تقل 1500 م ولا وجود لمزنة ركامية السحاب الأسود

TAF: YPKG 171710Z 1718/1818 12005KT CAVOK FM180100 02008KT CAVOK FM180800 10006KT CAVOK

أرصاد الطقس والتوقعات من أكثر من 4000 مطار (تقارير الطقس للمطار METAR والتنبؤ بالطقس بالمطارTAF).

المحطات المتاحة هي النقط الصفراء والحمراء على الخريطة.

حرك المؤشر فوق النقطة لمعرفة اسم المحطة.

ثم انقر لمعرفة أرصاد وتوقعات الطقس.

لتغيير الخارطة: اضغط على الأزرار الخضراء مع رمز الصليب الأسود للتكبير. على الزر الأخضر مع شرطة للتصغير، أو على الأسهم الخضراء للخرائط المجاورة.


METAR-TAF: